createdAt,value
2019-04-23T00:03:16.912Z,11.30
2019-04-23T00:08:17.476Z,11.20
2019-04-23T00:13:30.462Z,11.30
2019-04-23T00:18:36.924Z,11.30
2019-04-23T00:23:46.359Z,11.30
2019-04-23T00:28:42.175Z,11.30
2019-04-23T00:33:44.842Z,11.20
2019-04-23T00:38:50.078Z,11.20
2019-04-23T00:49:15.616Z,11.20
2019-04-23T00:54:12.280Z,11.10
2019-04-23T00:59:12.442Z,11.00
2019-04-23T01:04:18.575Z,11.00
2019-04-23T01:09:29.612Z,10.90
2019-04-23T01:14:34.457Z,10.90
2019-04-23T01:19:52.947Z,10.80
2019-04-23T01:24:44.101Z,10.80
2019-04-23T01:36:01.026Z,10.60
2019-04-23T01:40:28.404Z,10.70
2019-04-23T01:45:35.920Z,10.70
2019-04-23T01:50:46.425Z,10.70
2019-04-23T02:00:49.440Z,10.50
2019-04-23T02:05:58.875Z,10.50
2019-04-23T02:16:04.650Z,10.40
2019-04-23T02:21:11.833Z,10.30
2019-04-23T02:26:26.203Z,10.30
2019-04-23T02:36:40.557Z,9.90
2019-04-23T02:46:56.806Z,9.70
2019-04-23T02:56:57.304Z,9.80
2019-04-23T03:02:28.373Z,9.80
2019-04-23T03:07:14.164Z,9.70
2019-04-23T03:12:24.956Z,9.60
2019-04-23T03:17:33.053Z,9.60
2019-04-23T03:23:13.195Z,9.60
2019-04-23T03:28:23.228Z,9.60
2019-04-23T03:38:41.738Z,9.60
2019-04-23T03:43:33.682Z,9.60
2019-04-23T03:58:47.860Z,9.30
2019-04-23T04:09:11.795Z,9.20
2019-04-23T04:19:18.332Z,9.40
2019-04-23T04:24:37.330Z,9.50
2019-04-23T04:29:37.538Z,9.90
2019-04-23T04:35:05.557Z,10.10
2019-04-23T04:39:43.160Z,10.30
2019-04-23T04:49:55.778Z,10.80
2019-04-23T04:54:55.871Z,11.10
2019-04-23T05:00:21.567Z,11.40
2019-04-23T05:05:20.678Z,11.70
2019-04-23T05:11:28.840Z,10.60
2019-04-23T05:15:28.356Z,11.80
2019-04-23T05:25:25.487Z,11.50
2019-04-23T05:30:40.691Z,11.60
2019-04-23T05:36:04.567Z,11.60
2019-04-23T05:40:53.619Z,11.80
2019-04-23T05:45:46.735Z,11.80
2019-04-23T05:51:06.022Z,11.80
2019-04-23T05:56:01.541Z,11.90
2019-04-23T06:17:03.864Z,12.10
2019-04-23T06:27:01.721Z,12.20
2019-04-23T06:31:58.529Z,12.40
2019-04-23T06:37:09.752Z,12.70
2019-04-23T06:42:13.524Z,12.80
2019-04-23T06:47:21.943Z,12.90
2019-04-23T06:52:21.575Z,12.90
2019-04-23T06:57:26.970Z,13.10
2019-04-23T07:02:38.796Z,13.00
2019-04-23T07:17:54.083Z,13.60
2019-04-23T07:23:15.727Z,13.70
2019-04-23T07:28:14.942Z,13.80
2019-04-23T07:33:18.864Z,14.20
2019-04-23T07:38:40.663Z,14.20
2019-04-23T07:43:54.435Z,14.30
2019-04-23T07:48:57.963Z,14.60
2019-04-23T07:54:08.091Z,14.70
2019-04-23T07:59:16.054Z,14.80
2019-04-23T08:04:16.881Z,15.10
2019-04-23T08:09:24.347Z,14.90
2019-04-23T08:14:36.086Z,15.50
2019-04-23T08:19:47.876Z,15.60
2019-04-23T08:25:03.304Z,15.80
2019-04-23T08:29:56.069Z,15.80
2019-04-23T08:40:06.723Z,16.30
2019-04-23T08:50:35.437Z,16.10
2019-04-23T08:55:39.956Z,16.30
2019-04-23T09:05:57.696Z,16.90
2019-04-23T09:11:04.775Z,16.80
2019-04-23T09:16:05.180Z,17.40
2019-04-23T09:21:08.996Z,17.20
2019-04-23T09:26:08.286Z,17.40
2019-04-23T09:36:40.514Z,17.40
2019-04-23T09:42:16.199Z,17.50
2019-04-23T09:47:42.019Z,17.70
2019-04-23T09:52:48.811Z,18.10
2019-04-23T09:57:51.574Z,18.20
2019-04-23T10:02:41.218Z,18.40
2019-04-23T10:07:40.576Z,18.80
2019-04-23T10:12:35.733Z,18.90
2019-04-23T10:17:40.262Z,19.10
2019-04-23T10:22:44.319Z,19.20
2019-04-23T10:27:55.045Z,19.60
2019-04-23T10:32:53.802Z,19.50
2019-04-23T10:38:03.871Z,18.80
2019-04-23T10:43:03.903Z,18.70
2019-04-23T10:49:00.712Z,18.50
2019-04-23T10:54:16.534Z,18.70
2019-04-23T10:59:12.002Z,19.30
2019-04-23T11:04:34.237Z,18.90
2019-04-23T11:14:33.839Z,19.00
2019-04-23T11:19:45.842Z,19.10
2019-04-23T11:24:41.902Z,19.10
2019-04-23T11:45:10.558Z,19.70
2019-04-23T11:50:12.308Z,19.70
2019-04-23T11:55:26.182Z,20.10
2019-04-23T12:06:04.159Z,19.80
2019-04-23T12:11:15.210Z,19.50
2019-04-23T12:16:00.536Z,19.30
2019-04-23T12:21:22.608Z,19.60
2019-04-23T12:26:34.171Z,19.90
2019-04-23T12:31:34.170Z,19.70
2019-04-23T12:41:54.678Z,20.50
2019-04-23T12:47:04.821Z,20.30
2019-04-23T12:52:14.296Z,18.90
2019-04-23T12:57:18.579Z,18.40
2019-04-23T13:02:27.441Z,19.30
2019-04-23T13:07:25.801Z,18.80
2019-04-23T13:12:36.185Z,19.20
2019-04-23T13:17:50.563Z,19.90
2019-04-23T13:22:52.929Z,19.20
2019-04-23T13:27:53.513Z,19.60
2019-04-23T13:32:58.941Z,19.90
2019-04-23T13:38:08.139Z,19.60
2019-04-23T13:53:28.791Z,18.70
2019-04-23T13:58:34.475Z,18.60
2019-04-23T14:03:33.697Z,18.80
2019-04-23T14:13:44.083Z,18.70
2019-04-23T14:24:03.285Z,19.00
2019-04-23T14:28:51.239Z,18.50
2019-04-23T14:34:25.427Z,18.50
2019-04-23T14:39:05.767Z,18.70
2019-04-23T14:44:18.580Z,18.70
2019-04-23T14:49:36.082Z,18.50
2019-04-23T14:55:11.441Z,18.10
2019-04-23T14:59:46.938Z,18.00
2019-04-23T15:04:54.489Z,18.20
2019-04-23T15:10:04.578Z,18.10
2019-04-23T15:15:10.345Z,17.90
2019-04-23T15:25:30.290Z,17.60
2019-04-23T15:27:08.535Z,17.70
2019-04-23T15:30:17.561Z,17.40
2019-04-23T15:35:55.755Z,17.10
2019-04-23T15:40:34.145Z,16.70
2019-04-23T15:50:51.712Z,15.50
2019-04-23T15:55:51.691Z,15.10
2019-04-23T16:06:02.912Z,14.50
2019-04-23T16:16:45.395Z,13.90
2019-04-23T16:21:58.429Z,13.70
2019-04-23T16:26:58.011Z,13.60
2019-04-23T16:32:04.051Z,13.40
2019-04-23T16:42:11.546Z,13.50
2019-04-23T16:52:24.508Z,13.30
2019-04-23T17:02:40.555Z,13.30
2019-04-23T17:07:36.284Z,13.20
2019-04-23T17:12:46.289Z,13.10
2019-04-23T17:17:45.145Z,13.00
2019-04-23T17:23:00.152Z,12.90
2019-04-23T17:28:05.602Z,12.90
2019-04-23T17:33:27.225Z,12.80
2019-04-23T17:38:24.864Z,12.90
2019-04-23T17:43:26.887Z,12.90
2019-04-23T17:48:32.825Z,12.80
2019-04-23T17:53:42.508Z,12.80
2019-04-23T17:58:43.983Z,12.70
2019-04-23T18:09:00.509Z,12.50
2019-04-23T18:14:02.324Z,12.50
2019-04-23T18:19:10.329Z,12.50
2019-04-23T18:24:23.399Z,12.50
2019-04-23T18:34:48.930Z,12.70
2019-04-23T18:44:48.491Z,12.80
2019-04-23T18:49:56.872Z,12.80
2019-04-23T18:55:04.079Z,13.10
2019-04-23T19:00:16.805Z,13.20
2019-04-23T19:05:34.522Z,13.50
2019-04-23T19:10:31.700Z,13.70
2019-04-23T19:15:37.930Z,13.90
2019-04-23T19:25:46.823Z,14.10
2019-04-23T19:31:07.359Z,14.20
2019-04-23T19:36:19.048Z,14.30
2019-04-23T19:41:23.571Z,14.40
2019-04-23T19:46:44.999Z,14.50
2019-04-23T19:51:33.797Z,14.50
2019-04-23T19:56:46.254Z,14.60
2019-04-23T20:01:47.212Z,14.60
2019-04-23T20:11:54.963Z,14.80
2019-04-23T20:17:23.259Z,14.80
2019-04-23T20:27:18.045Z,14.70
2019-04-23T20:31:33.487Z,14.70
2019-04-23T20:42:34.739Z,14.60
2019-04-23T20:47:48.653Z,14.70
2019-04-23T20:52:46.543Z,14.70
2019-04-23T20:58:02.238Z,14.60
2019-04-23T21:03:31.185Z,14.60
2019-04-23T21:08:30.892Z,14.60
2019-04-23T21:13:50.645Z,14.70
2019-04-23T21:18:37.881Z,14.70
2019-04-23T21:23:45.771Z,14.80
2019-04-23T21:28:58.680Z,15.00
2019-04-23T21:34:05.095Z,15.00
2019-04-23T21:39:18.878Z,15.10
2019-04-23T21:44:28.891Z,15.10
2019-04-23T21:49:40.765Z,15.00
2019-04-23T21:54:29.254Z,15.00
2019-04-23T21:59:39.591Z,15.00
2019-04-23T22:04:44.845Z,14.90
2019-04-23T22:20:03.969Z,14.80
2019-04-23T22:24:59.169Z,14.80
2019-04-23T22:30:02.908Z,14.70
2019-04-23T22:35:16.370Z,14.80
2019-04-23T22:40:18.152Z,14.70
2019-04-23T22:45:26.842Z,14.60
2019-04-23T22:55:40.533Z,14.60
2019-04-23T23:00:55.627Z,14.50
2019-04-23T23:06:11.016Z,14.50
2019-04-23T23:11:02.332Z,14.50
2019-04-23T23:16:12.600Z,14.50
2019-04-23T23:21:12.092Z,14.40
2019-04-23T23:26:26.765Z,14.40
2019-04-23T23:31:30.157Z,14.30
2019-04-23T23:41:42.958Z,14.20
2019-04-23T23:51:54.069Z,14.20
